Time;durP1;ratioP1;P1;durP2;ratioP2;P2;SDS_P1;SDS_P2;PMS_P1;PMS_P2;Temp;Humidity;BMP_temperature;BMP_pressure;BME280_temperature;BME280_humidity;BME280_pressure;Samples;Min_cycle;Max_cycle;Signal;HPM_P1;HPM_P2
2023/06/16 00:01:09;;;;;;;8.38;7.03;;;11.00;99.90;;;;;;5117541;27;20495;-28
2023/06/16 00:03:35;;;;;;;10.98;7.53;;;10.80;99.90;;;;;;5135607;27;20039;-27
2023/06/16 00:06:14;;;;;;;11.27;8.82;;;10.60;99.90;;;;;;5100475;27;20394;-27
2023/06/16 00:08:45;;;;;;;10.57;8.23;;;10.50;99.90;;;;;;5099838;27;20428;-27
2023/06/16 00:11:12;;;;;;;12.15;8.48;;;10.40;99.90;;;;;;5135337;27;20472;-25
2023/06/16 00:13:39;;;;;;;10.07;8.18;;;;;;;;;;5135349;27;20130;-26
2023/06/16 00:16:04;;;;;;;13.02;8.70;;;10.30;99.90;;;;;;5135877;27;20047;-27
2023/06/16 00:18:31;;;;;;;10.65;9.52;;;10.30;99.90;;;;;;5117748;27;20035;-27
2023/06/16 00:21:01;;;;;;;12.60;10.57;;;10.30;99.90;;;;;;5117181;27;20400;-27
2023/06/16 00:23:27;;;;;;;18.13;10.00;;;10.20;99.90;;;;;;5117247;27;20477;-26
2023/06/16 00:25:52;;;;;;;11.88;10.13;;;10.20;99.90;;;;;;5135174;27;20058;-27
2023/06/16 00:28:19;;;;;;;12.90;11.20;;;10.10;99.90;;;;;;5116977;27;20043;-27
2023/06/16 00:30:45;;;;;;;12.88;10.50;;;10.10;99.90;;;;;;5116771;27;20091;-27
2023/06/16 00:33:12;;;;;;;15.18;11.13;;;10.10;99.90;;;;;;5135053;27;20046;-27
2023/06/16 00:35:39;;;;;;;13.68;10.88;;;10.10;99.90;;;;;;5135019;27;20094;-27
2023/06/16 00:38:05;;;;;;;13.15;11.73;;;10.10;99.90;;;;;;5135718;27;20075;-26
2023/06/16 00:40:31;;;;;;;15.35;11.80;;;10.10;99.90;;;;;;5135484;27;20484;-27
2023/06/16 00:42:58;;;;;;;12.75;11.43;;;10.10;99.90;;;;;;5116766;28;20055;-26
2023/06/16 00:45:24;;;;;;;12.88;11.18;;;10.00;99.90;;;;;;5134912;27;20047;-28
2023/06/16 00:47:51;;;;;;;13.45;10.73;;;10.00;99.90;;;;;;5135459;27;20074;-27
2023/06/16 00:50:18;;;;;;;16.38;11.82;;;10.00;99.90;;;;;;5116704;27;20126;-26
2023/06/16 00:52:44;;;;;;;13.98;12.48;;;10.00;99.90;;;;;;5100442;28;20373;-26
2023/06/16 00:55:11;;;;;;;17.10;13.07;;;10.00;99.90;;;;;;5135322;27;20054;-26
2023/06/16 00:57:40;;;;;;;13.35;11.95;;;10.00;99.90;;;;;;5134742;27;20043;-27
2023/06/16 01:00:11;;;;;;;18.27;13.45;;;10.00;99.90;;;;;;5116333;28;20035;-26
2023/06/16 01:02:38;;;;;;;14.73;12.90;;;10.10;99.90;;;;;;5134780;27;20043;-26
2023/06/16 01:05:07;;;;;;;16.08;12.73;;;10.10;99.90;;;;;;5135205;28;20040;-26
2023/06/16 01:07:59;;;;;;;16.90;13.18;;;10.10;99.90;;;;;;5134633;28;20078;-26
2023/06/16 01:10:46;;;;;;;14.98;12.85;;;10.10;99.90;;;;;;5135182;28;20035;-26
2023/06/16 01:13:25;;;;;;;18.35;13.20;;;10.10;99.90;;;;;;5116522;28;20125;-26
2023/06/16 01:15:52;;;;;;;16.98;13.25;;;10.20;99.90;;;;;;5117121;28;20047;-26
2023/06/16 01:18:22;;;;;;;17.33;14.05;;;10.20;99.90;;;;;;5134437;28;20055;-26
2023/06/16 01:21:03;;;;;;;16.88;12.98;;;10.20;99.90;;;;;;5134540;28;20058;-27
2023/06/16 01:23:56;;;;;;;16.40;14.43;;;10.20;99.90;;;;;;5134952;27;20115;-26
2023/06/16 01:26:24;;;;;;;18.65;15.13;;;10.30;99.90;;;;;;5116624;28;20499;-27
2023/06/16 01:28:52;;;;;;;18.75;14.77;;;10.50;99.90;;;;;;5134959;28;20042;-26
2023/06/16 01:31:19;;;;;;;15.75;13.73;;;10.50;99.90;;;;;;5116994;28;20047;-26
2023/06/16 01:33:46;;;;;;;19.98;13.38;;;10.60;99.90;;;;;;5099293;28;20477;-26
2023/06/16 01:36:14;;;;;;;16.73;14.52;;;10.70;99.90;;;;;;5116245;28;20054;-26
2023/06/16 01:38:41;;;;;;;16.00;12.07;;;10.80;99.90;;;;;;5134219;28;20559;-26
2023/06/16 01:41:08;;;;;;;17.17;12.55;;;10.70;99.90;;;;;;5134107;28;20047;-26
2023/06/16 01:43:35;;;;;;;14.93;11.90;;;10.70;99.90;;;;;;5134611;28;20047;-26
2023/06/16 01:46:01;;;;;;;13.68;11.57;;;10.80;99.90;;;;;;5134273;28;20111;-26
2023/06/16 01:48:28;;;;;;;15.48;11.43;;;10.70;99.90;;;;;;5116008;28;20047;-27
2023/06/16 01:50:54;;;;;;;13.80;12.30;;;10.60;99.90;;;;;;5100015;28;20130;-26
2023/06/16 01:53:20;;;;;;;13.20;11.80;;;10.60;99.90;;;;;;5134232;28;20047;-26
2023/06/16 01:55:50;;;;;;;21.98;12.77;;;10.50;99.90;;;;;;5115979;28;20540;-27
2023/06/16 01:58:17;;;;;;;15.68;12.48;;;10.40;99.90;;;;;;5134355;28;20054;-27
2023/06/16 02:01:11;;;;;;;15.18;11.68;;;10.40;99.90;;;;;;5134674;28;20078;-26
2023/06/16 02:03:45;;;;;;;15.15;13.00;;;10.30;99.90;;;;;;5116958;28;20130;-27
2023/06/16 02:06:19;;;;;;;14.93;12.82;;;10.30;99.90;;;;;;5115858;28;20043;-26
2023/06/16 02:08:47;;;;;;;14.40;12.90;;;10.30;99.90;;;;;;5134973;28;20073;-26
2023/06/16 02:11:15;;;;;;;16.27;13.38;;;10.30;99.90;;;;;;5134588;28;20047;-26
2023/06/16 02:13:41;;;;;;;15.32;13.68;;;10.20;99.90;;;;;;5134252;27;20051;-26
2023/06/16 02:16:07;;;;;;;16.50;13.63;;;10.20;99.90;;;;;;5120195;27;20051;-26
2023/06/16 02:18:33;;;;;;;16.30;14.25;;;10.20;99.90;;;;;;5138360;27;20371;-26
2023/06/16 02:20:59;;;;;;;19.10;15.57;;;10.10;99.90;;;;;;5119724;27;20040;-26
2023/06/16 02:23:25;;;;;;;16.85;14.60;;;10.10;99.90;;;;;;5137223;27;20484;-26
2023/06/16 02:25:51;;;;;;;16.85;14.57;;;10.10;99.90;;;;;;5137059;27;20557;-26
2023/06/16 02:28:17;;;;;;;18.42;16.30;;;10.10;99.90;;;;;;5137422;27;20039;-26
2023/06/16 02:30:43;;;;;;;14.57;13.07;;;10.10;99.90;;;;;;5137449;27;20099;-26
2023/06/16 02:33:11;;;;;;;15.77;12.98;;;10.00;99.90;;;;;;5102298;27;20078;-26
2023/06/16 02:35:36;;;;;;;15.13;12.60;;;9.90;99.90;;;;;;5138148;27;20039;-26
2023/06/16 02:38:02;;;;;;;14.43;12.48;;;9.70;99.90;;;;;;5119140;27;20482;-26
2023/06/16 02:40:28;;;;;;;14.55;12.95;;;9.60;99.90;;;;;;5137194;27;20043;-26
2023/06/16 02:42:54;;;;;;;15.52;13.23;;;9.50;99.90;;;;;;5098189;28;20501;-26
2023/06/16 02:45:20;;;;;;;15.88;13.52;;;9.50;99.90;;;;;;5117385;28;20044;-26
2023/06/16 02:47:46;;;;;;;15.13;13.45;;;9.40;99.90;;;;;;5116386;28;20056;-26
2023/06/16 02:50:12;;;;;;;14.85;12.77;;;9.40;99.90;;;;;;5116478;28;20123;-27
2023/06/16 02:52:41;;;;;;;13.77;12.20;;;9.30;99.90;;;;;;5115466;28;20472;-27
2023/06/16 02:55:08;;;;;;;15.48;13.15;;;9.20;99.90;;;;;;5116389;28;20516;-26
2023/06/16 02:57:35;;;;;;;20.90;15.68;;;9.20;99.90;;;;;;5116387;28;20130;-26
2023/06/16 03:00:01;;;;;;;16.90;14.65;;;9.20;99.90;;;;;;5116519;28;20090;-26
2023/06/16 03:02:27;;;;;;;17.50;14.55;;;9.10;99.90;;;;;;5116809;28;20036;-27
2023/06/16 03:04:52;;;;;;;19.95;15.60;;;9.10;99.90;;;;;;5098901;28;20113;-26
2023/06/16 03:07:19;;;;;;;18.83;16.02;;;9.10;99.90;;;;;;5116159;28;20048;-26
2023/06/16 03:09:45;;;;;;;19.85;17.23;;;9.00;99.90;;;;;;5116992;28;20071;-26
2023/06/16 03:12:11;;;;;;;20.55;18.20;;;9.00;99.90;;;;;;5116649;28;20052;-26
2023/06/16 03:14:37;;;;;;;21.00;17.98;;;9.10;99.90;;;;;;5114401;28;20043;-26
2023/06/16 03:17:03;;;;;;;23.75;19.25;;;9.10;99.90;;;;;;5116198;28;20497;-26
2023/06/16 03:19:29;;;;;;;25.27;19.00;;;9.10;99.90;;;;;;5115353;28;20050;-26
2023/06/16 03:21:54;;;;;;;26.33;20.13;;;9.10;99.90;;;;;;5116315;28;20470;-26
2023/06/16 03:24:21;;;;;;;26.58;20.27;;;9.10;99.90;;;;;;5097263;28;20426;-26
2023/06/16 03:26:46;;;;;;;30.33;23.00;;;9.20;99.90;;;;;;5116059;28;20131;-26
2023/06/16 03:29:12;;;;;;;28.48;23.13;;;9.30;99.90;;;;;;5115567;28;20521;-26
2023/06/16 03:31:39;;;;;;;32.90;23.77;;;9.40;99.90;;;;;;5115422;28;20047;-26
2023/06/16 03:34:05;;;;;;;29.55;23.67;;;9.50;99.90;;;;;;5115546;28;20040;-26
2023/06/16 03:36:39;;;;;;;30.58;24.65;;;9.60;99.90;;;;;;5115506;28;20040;-26
2023/06/16 03:39:05;;;;;;;29.17;23.85;;;9.60;99.90;;;;;;5115448;28;20043;-26
2023/06/16 03:41:32;;;;;;;303.73;34.47;;;9.80;99.90;;;;;;5113910;28;20455;-26
2023/06/16 03:43:58;;;;;;;395.67;39.40;;;9.90;99.90;;;;;;5115920;28;20378;-26
2023/06/16 03:46:24;;;;;;;361.58;35.15;;;10.00;99.90;;;;;;5116073;28;20040;-27
2023/06/16 03:48:50;;;;;;;342.95;35.22;;;10.10;99.90;;;;;;5115179;28;20550;-26
2023/06/16 03:51:16;;;;;;;332.10;34.83;;;10.20;99.90;;;;;;5115175;28;20485;-26
2023/06/16 03:53:43;;;;;;;137.85;27.73;;;10.30;99.90;;;;;;5115708;28;20469;-26
2023/06/16 03:56:09;;;;;;;252.18;32.13;;;10.40;99.90;;;;;;5115070;28;20039;-26
2023/06/16 03:58:35;;;;;;;202.68;29.63;;;10.60;99.90;;;;;;5114971;28;20470;-26
2023/06/16 04:01:02;;;;;;;176.23;30.33;;;10.60;99.90;;;;;;5114914;28;20043;-27
2023/06/16 04:03:27;;;;;;;60.55;24.95;;;10.70;99.90;;;;;;5113729;28;20126;-26
2023/06/16 04:05:53;;;;;;;44.58;22.77;;;10.90;99.90;;;;;;5115307;28;20078;-26
2023/06/16 04:08:20;;;;;;;80.18;22.42;;;11.00;99.90;;;;;;5114628;28;20450;-27
2023/06/16 04:10:46;;;;;;;39.22;20.05;;;11.10;99.90;;;;;;5114819;28;20051;-27
2023/06/16 04:13:12;;;;;;;46.55;17.92;;;11.20;99.90;;;;;;5096913;28;20087;-26
2023/06/16 04:15:38;;;;;;;56.90;20.42;;;11.30;99.90;;;;;;5115108;28;20087;-26
2023/06/16 04:18:04;;;;;;;23.67;17.27;;;11.30;99.90;;;;;;5115326;28;20096;-26
2023/06/16 04:20:31;;;;;;;25.88;18.42;;;11.40;99.90;;;;;;5115034;28;20040;-26
2023/06/16 04:22:56;;;;;;;43.97;20.45;;;11.40;99.90;;;;;;5114068;28;20126;-26
2023/06/16 04:25:22;;;;;;;30.60;22.63;;;11.40;99.90;;;;;;5096642;28;20079;-26
2023/06/16 04:27:51;;;;;;;37.58;25.98;;;11.40;99.90;;;;;;5114023;28;20058;-26
2023/06/16 04:30:22;;;;;;;38.95;27.73;;;11.40;99.90;;;;;;5114607;28;20047;-26
2023/06/16 04:32:49;;;;;;;37.03;27.80;;;11.50;99.90;;;;;;5114626;28;20236;-26
2023/06/16 04:35:15;;;;;;;39.60;29.08;;;11.60;99.90;;;;;;5113855;28;20101;-27
2023/06/16 04:37:41;;;;;;;44.50;31.25;;;11.70;99.90;;;;;;5113394;28;20537;-26
2023/06/16 04:40:08;;;;;;;46.42;31.63;;;11.90;99.90;;;;;;5114319;28;20043;-27
2023/06/16 04:42:35;;;;;;;42.47;30.85;;;12.00;99.90;;;;;;5128513;27;20090;-26
2023/06/16 04:45:00;;;;;;;43.65;31.40;;;12.10;99.90;;;;;;5116520;27;20050;-27
2023/06/16 04:47:26;;;;;;;47.05;33.85;;;12.10;99.90;;;;;;5134866;27;20043;-26
2023/06/16 04:49:52;;;;;;;49.28;33.22;;;12.20;99.90;;;;;;5134999;27;20387;-26
2023/06/16 04:52:18;;;;;;;45.83;33.00;;;12.30;99.90;;;;;;5134908;27;20122;-28
2023/06/16 04:54:45;;;;;;;46.72;33.70;;;12.40;99.90;;;;;;5135138;27;20039;-27
2023/06/16 04:57:11;;;;;;;46.28;33.60;;;12.60;99.90;;;;;;5134690;27;20047;-27
2023/06/16 04:59:37;;;;;;;45.20;33.22;;;12.70;99.90;;;;;;5116339;28;20051;-26
2023/06/16 05:02:03;;;;;;;47.33;32.33;;;12.90;99.90;;;;;;5134647;27;20039;-26
2023/06/16 05:04:28;;;;;;;44.72;33.13;;;13.10;99.90;;;;;;5116298;28;20051;-26
2023/06/16 05:06:54;;;;;;;53.08;35.35;;;13.40;99.90;;;;;;5116479;28;20054;-27
2023/06/16 05:09:23;;;;;;;52.63;36.28;;;13.90;99.90;;;;;;5134185;28;20073;-27
2023/06/16 05:11:48;;;;;;;52.78;38.03;;;14.20;99.90;;;;;;5134726;28;20490;-27
2023/06/16 05:14:14;;;;;;;51.92;39.35;;;14.70;99.90;;;;;;5134533;28;20086;-26
2023/06/16 05:16:40;;;;;;;51.60;39.83;;;15.30;99.90;;;;;;5099354;28;20131;-26
2023/06/16 05:19:06;;;;;;;45.67;33.78;;;15.90;99.90;;;;;;5134652;28;20039;-27
2023/06/16 05:21:31;;;;;;;34.53;29.17;;;16.10;99.90;;;;;;5134428;28;20500;-27
2023/06/16 05:24:00;;;;;;;35.00;29.35;;;16.60;99.90;;;;;;5134380;27;20043;-26
2023/06/16 05:26:26;;;;;;;32.65;28.08;;;16.90;99.90;;;;;;5134401;28;20043;-26
2023/06/16 05:28:52;;;;;;;33.03;25.50;;;17.50;99.90;;;;;;5135160;28;20119;-27
2023/06/16 05:31:18;;;;;;;27.40;24.45;;;18.20;99.90;;;;;;5134371;28;20485;-27
2023/06/16 05:33:44;;;;;;;26.60;22.77;;;18.70;99.90;;;;;;5099359;28;20054;-27
2023/06/16 05:36:10;;;;;;;25.33;22.67;;;19.30;99.90;;;;;;5134296;28;20047;-27
2023/06/16 05:38:35;;;;;;;26.38;21.48;;;19.80;99.90;;;;;;5116314;28;20058;-27
2023/06/16 05:41:01;;;;;;;22.17;19.77;;;20.10;99.90;;;;;;5133957;28;20047;-27
2023/06/16 05:43:27;;;;;;;20.98;18.77;;;20.00;99.90;;;;;;5115994;28;20047;-27
2023/06/16 05:45:52;;;;;;;21.35;18.80;;;19.90;99.90;;;;;;5134132;28;20050;-27
2023/06/16 05:48:18;;;;;;;20.63;18.52;;;19.90;99.90;;;;;;5135440;27;20058;-27
2023/06/16 05:50:44;;;;;;;19.05;17.05;;;20.10;99.90;;;;;;5138102;27;20477;-27
2023/06/16 05:53:10;;;;;;;15.55;14.02;;;20.20;99.90;;;;;;5138096;27;20051;-27
2023/06/16 05:55:35;;;;;;;18.75;16.85;;;20.20;76.50;;;;;;5103029;27;20465;-27
2023/06/16 05:58:01;;;;;;;21.23;17.60;;;20.10;63.80;;;;;;5138764;27;20050;-27
2023/06/16 06:00:27;;;;;;;19.25;16.40;;;20.30;1.00;;;;;;5119539;27;20122;-28
2023/06/16 06:02:52;;;;;;;16.52;14.85;;;20.60;1.00;;;;;;5138191;27;20430;-28
2023/06/16 06:05:18;;;;;;;18.60;16.20;;;20.60;1.00;;;;;;5102881;27;20050;-27
2023/06/16 06:07:44;;;;;;;15.60;14.02;;;20.70;1.00;;;;;;5119314;27;20122;-27
2023/06/16 06:10:10;;;;;;;17.10;15.50;;;20.70;1.00;;;;;;5119707;27;20043;-27
2023/06/16 06:12:37;;;;;;;17.25;14.50;;;20.70;99.90;;;;;;5138249;27;20045;-27
2023/06/16 06:15:05;;;;;;;17.50;15.70;;;21.10;99.90;;;;;;5119277;27;20446;-29
2023/06/16 06:17:30;;;;;;;15.32;13.75;;;21.40;99.90;;;;;;5119295;27;20197;-27
2023/06/16 06:19:56;;;;;;;17.15;15.45;;;21.20;99.90;;;;;;5137597;27;20126;-27
2023/06/16 06:22:22;;;;;;;16.10;14.40;;;21.80;99.90;;;;;;5137550;27;20047;-27
2023/06/16 06:24:47;;;;;;;16.00;14.40;;;21.90;99.90;;;;;;5119301;27;20085;-27
2023/06/16 06:27:13;;;;;;;12.75;11.45;;;22.10;99.90;;;;;;5137460;27;20047;-27
2023/06/16 06:29:39;;;;;;;12.85;11.00;;;22.30;84.50;;;;;;5137933;27;20035;-28
2023/06/16 06:32:07;;;;;;;14.63;12.85;;;22.50;1.00;;;;;;5137311;27;20091;-30
2023/06/16 06:34:34;;;;;;;12.77;11.52;;;22.50;1.00;;;;;;5101921;27;20130;-27
2023/06/16 06:37:00;;;;;;;14.57;12.05;;;22.20;1.00;;;;;;5137315;27;20051;-27
2023/06/16 06:39:26;;;;;;;13.77;12.43;;;22.20;1.00;;;;;;5137124;27;20043;-27
2023/06/16 06:41:51;;;;;;;9.60;7.72;;;22.30;99.90;;;;;;5101341;27;20115;-27
2023/06/16 06:44:17;;;;;;;8.27;6.70;;;22.30;99.90;;;;;;5137039;27;20082;-27
2023/06/16 06:46:43;;;;;;;12.23;7.50;;;22.60;99.90;;;;;;5137123;27;20130;-27
2023/06/16 06:49:08;;;;;;;8.13;7.32;;;22.80;99.90;;;;;;5137414;27;20035;-27
2023/06/16 06:51:35;;;;;;;8.10;7.30;;;22.80;1.00;;;;;;5136869;27;20123;-27
2023/06/16 06:54:01;;;;;;;10.90;7.32;;;22.50;1.00;;;;;;5136922;27;20043;-28
2023/06/16 06:56:27;;;;;;;7.22;5.68;;;22.30;11.30;;;;;;5136861;27;20483;-27
2023/06/16 06:58:53;;;;;;;8.63;6.07;;;22.50;99.90;;;;;;5137314;27;20039;-27
2023/06/16 07:01:18;;;;;;;6.85;5.75;;;22.40;1.00;;;;;;5100460;27;20055;-28
2023/06/16 07:03:44;;;;;;;8.52;5.45;;;22.20;99.90;;;;;;5136723;27;20069;-29
2023/06/16 07:06:10;;;;;;;6.30;5.50;;;21.70;99.90;;;;;;5118303;27;20043;-27
2023/06/16 07:08:35;;;;;;;7.22;5.60;;;21.80;99.90;;;;;;5118254;27;20070;-27
2023/06/16 07:11:01;;;;;;;6.47;5.03;;;22.20;99.90;;;;;;5137054;27;20043;-27
2023/06/16 07:13:27;;;;;;;5.57;5.05;;;22.30;1.00;;;;;;5101619;27;20088;-27
2023/06/16 07:15:53;;;;;;;9.25;5.47;;;22.20;1.00;;;;;;5118648;27;20047;-28
2023/06/16 07:18:19;;;;;;;5.95;5.10;;;22.50;1.00;;;;;;5136951;27;20100;-27
2023/06/16 07:20:44;;;;;;;8.10;4.80;;;22.80;1.00;;;;;;5118670;27;20293;-28
2023/06/16 07:23:10;;;;;;;5.97;5.22;;;23.00;99.90;;;;;;5136327;27;20120;-28
2023/06/16 07:25:36;;;;;;;8.23;4.95;;;22.70;1.00;;;;;;5136276;27;20047;-28
2023/06/16 07:28:06;;;;;;;10.95;4.43;;;22.60;99.90;;;;;;5118347;27;20366;-28
2023/06/16 07:30:32;;;;;;;5.45;4.18;;;22.70;99.90;;;;;;5117930;27;20418;-29
2023/06/16 07:32:57;;;;;;;5.22;4.20;;;22.50;1.00;;;;;;5136701;27;20043;-27
2023/06/16 07:35:24;;;;;;;7.30;4.57;;;22.60;1.00;;;;;;5136073;27;20055;-27
2023/06/16 07:37:50;;;;;;;5.32;3.50;;;22.90;99.90;;;;;;5117934;27;20049;-27
2023/06/16 07:40:15;;;;;;;4.95;3.95;;;23.00;25.20;;;;;;5135875;27;20089;-27
2023/06/16 07:42:45;;;;;;;5.25;3.72;;;22.80;1.00;;;;;;5117144;27;20059;-28
2023/06/16 07:45:12;;;;;;;2.97;2.08;;;22.90;99.90;;;;;;5117819;27;20518;-28
2023/06/16 07:47:41;;;;;;;6.97;2.47;;;23.50;1.00;;;;;;5117530;27;20477;-28
2023/06/16 07:50:10;;;;;;;5.43;2.60;;;23.00;1.00;;;;;;5118474;27;20047;-27
2023/06/16 07:52:36;;;;;;;4.28;2.28;;;22.80;99.90;;;;;;5135737;27;20072;-27
2023/06/16 07:55:02;;;;;;;3.50;2.17;;;23.40;93.60;;;;;;5136000;27;20055;-28
2023/06/16 07:57:28;;;;;;;6.32;2.28;;;23.50;1.00;;;;;;5136514;27;20520;-27
2023/06/16 07:59:53;;;;;;;3.20;2.03;;;23.60;99.90;;;;;;5117232;27;20126;-28
2023/06/16 08:02:19;;;;;;;4.95;2.10;;;23.30;99.90;;;;;;5135911;27;20035;-27
2023/06/16 08:04:45;;;;;;;2.95;1.85;;;23.20;99.90;;;;;;5117550;27;20043;-28
2023/06/16 08:07:10;;;;;;;2.17;1.60;;;23.20;99.90;;;;;;5136138;27;20505;-27
2023/06/16 08:09:36;;;;;;;2.97;2.00;;;23.10;99.90;;;;;;5136014;27;20043;-28
2023/06/16 08:12:02;;;;;;;3.22;1.70;;;23.00;99.90;;;;;;5135425;27;20043;-28
2023/06/16 08:14:30;;;;;;;4.35;1.67;;;23.20;99.90;;;;;;5136132;27;20376;-28
2023/06/16 08:16:55;;;;;;;3.35;2.03;;;23.20;99.90;;;;;;5135616;27;20109;-27
2023/06/16 08:19:21;;;;;;;1.90;1.33;;;23.00;49.10;;;;;;5135246;27;20472;-28
2023/06/16 08:21:47;;;;;;;4.72;1.60;;;23.40;1.00;;;;;;5135536;27;20103;-28
2023/06/16 08:24:12;;;;;;;2.25;1.30;;;23.10;1.00;;;;;;5135403;27;20480;-27
2023/06/16 08:26:38;;;;;;;2.40;1.80;;;23.60;1.00;;;;;;5100599;27;20074;-27
2023/06/16 08:29:04;;;;;;;2.65;1.67;;;24.30;6.60;;;;;;5116517;27;20111;-28
2023/06/16 08:31:30;;;;;;;3.40;1.63;;;24.70;72.20;;;;;;5135117;27;20050;-27
2023/06/16 08:33:56;;;;;;;3.95;1.50;;;24.30;1.00;;;;;;5116711;27;20126;-27
2023/06/16 08:36:24;;;;;;;3.28;1.80;;;23.90;1.00;;;;;;5100609;27;20039;-29
2023/06/16 08:38:52;;;;;;;3.15;1.50;;;23.70;1.00;;;;;;5134803;27;20418;-28
2023/06/16 08:41:20;;;;;;;4.72;1.45;;;23.60;1.00;;;;;;5134368;27;20492;-28
2023/06/16 08:43:49;;;;;;;2.45;1.60;;;23.50;1.00;;;;;;5135574;27;20063;-28
2023/06/16 08:46:15;;;;;;;2.05;1.40;;;23.50;12.80;;;;;;5134881;27;20452;-28
2023/06/16 08:48:41;;;;;;;2.80;1.40;;;23.90;43.20;;;;;;5099811;27;20078;-28
2023/06/16 08:51:10;;;;;;;5.60;1.70;;;24.20;32.70;;;;;;5135258;27;20082;-28
2023/06/16 08:53:38;;;;;;;2.22;1.58;;;23.80;10.30;;;;;;5134799;27;20047;-28
2023/06/16 08:56:05;;;;;;;2.70;1.67;;;23.90;25.60;;;;;;5134445;27;20576;-26
2023/06/16 08:58:33;;;;;;;1.52;1.33;;;24.00;14.60;;;;;;5134535;27;20035;-28
2023/06/16 09:01:02;;;;;;;3.67;1.70;;;23.40;1.00;;;;;;5134494;27;20039;-28
2023/06/16 09:03:32;;;;;;;2.17;1.67;;;23.10;16.60;;;;;;5116742;28;20491;-27
2023/06/16 09:06:02;;;;;;;3.65;1.67;;;23.70;31.90;;;;;;5134629;28;20047;-28
2023/06/16 09:08:28;;;;;;;3.80;1.75;;;24.10;51.80;;;;;;5116394;28;20431;-27
2023/06/16 09:10:57;;;;;;;5.65;1.45;;;24.00;8.50;;;;;;5135392;28;20099;-28
2023/06/16 09:13:24;;;;;;;2.65;1.80;;;23.80;13.10;;;;;;5116449;28;20540;-29
2023/06/16 09:15:50;;;;;;;5.05;2.03;;;23.90;37.80;;;;;;5134139;28;20488;-28
2023/06/16 09:18:16;;;;;;;3.35;1.55;;;23.80;32.70;;;;;;5116163;28;20046;-28
2023/06/16 09:20:44;;;;;;;1.88;1.40;;;23.80;46.80;;;;;;5116896;28;20119;-28
2023/06/16 09:23:10;;;;;;;2.58;1.60;;;23.80;97.10;;;;;;5117213;27;20043;-28
2023/06/16 09:25:38;;;;;;;2.88;1.48;;;23.70;82.90;;;;;;5138547;27;20039;-28
2023/06/16 09:28:09;;;;;;;2.53;1.35;;;23.70;44.90;;;;;;5138614;27;20058;-28
2023/06/16 09:30:35;;;;;;;4.50;1.85;;;23.80;76.10;;;;;;5138831;27;20035;-27
2023/06/16 09:33:02;;;;;;;3.05;1.52;;;24.90;78.20;;;;;;5138819;27;20125;-28
2023/06/16 09:35:30;;;;;;;3.92;1.42;;;25.30;62.50;;;;;;5138567;27;20059;-29
2023/06/16 09:37:58;;;;;;;2.88;1.13;;;25.10;24.10;;;;;;5138503;27;20058;-28
2023/06/16 09:40:30;;;;;;;1.83;1.15;;;25.00;1.00;;;;;;5119720;27;20442;-28
2023/06/16 09:42:58;;;;;;;4.70;1.33;;;25.10;2.80;;;;;;5138548;27;20396;-28
2023/06/16 09:45:29;;;;;;;1.63;1.10;;;24.90;1.00;;;;;;5120174;27;20047;-29
2023/06/16 09:47:56;;;;;;;3.53;1.33;;;24.90;1.00;;;;;;5119942;27;20481;-28
2023/06/16 09:50:26;;;;;;;1.70;1.05;;;24.90;1.00;;;;;;5119857;27;20496;-28
2023/06/16 09:52:54;;;;;;;3.15;1.40;;;24.40;1.00;;;;;;5138754;27;20404;-28
2023/06/16 09:55:20;;;;;;;2.90;1.50;;;24.30;1.00;;;;;;5119814;27;20197;-28
2023/06/16 09:57:47;;;;;;;4.28;1.30;;;24.50;1.00;;;;;;5120099;27;20543;-28
2023/06/16 10:00:18;;;;;;;3.33;1.75;;;24.50;1.00;;;;;;5138209;27;20043;-29
2023/06/16 10:02:45;;;;;;;2.67;1.48;;;24.00;1.00;;;;;;5138635;27;20047;-28
2023/06/16 10:05:19;;;;;;;2.65;1.38;;;23.90;1.00;;;;;;5137936;27;20035;-28
2023/06/16 10:07:53;;;;;;;4.28;1.83;;;24.20;1.00;;;;;;5137954;27;20050;-28
2023/06/16 10:10:29;;;;;;;4.72;1.60;;;24.90;9.60;;;;;;5119560;27;20169;-28
2023/06/16 10:12:56;;;;;;;3.60;1.50;;;25.40;33.40;;;;;;5138139;27;20389;-28
2023/06/16 10:15:27;;;;;;;2.88;1.45;;;25.60;59.20;;;;;;5137750;27;20039;-28
2023/06/16 10:18:03;;;;;;;3.20;1.70;;;25.10;27.00;;;;;;5138261;27;20062;-29
2023/06/16 10:20:30;;;;;;;2.58;1.73;;;24.90;32.30;;;;;;5120222;27;20135;-28
2023/06/16 10:22:58;;;;;;;5.35;1.70;;;24.70;40.40;;;;;;5137597;27;20066;-28
2023/06/16 10:25:25;;;;;;;3.95;1.65;;;24.60;10.60;;;;;;5119383;27;20044;-29
2023/06/16 10:27:52;;;;;;;4.00;1.80;;;24.40;13.60;;;;;;5119095;27;20492;-28
2023/06/16 10:30:19;;;;;;;2.97;1.77;;;24.20;25.00;;;;;;5137426;27;20047;-28
2023/06/16 10:32:55;;;;;;;4.20;1.60;;;24.00;12.50;;;;;;5068700;27;20426;-28
2023/06/16 10:35:22;;;;;;;5.25;2.55;;;23.90;66.50;;;;;;5117869;27;20146;-28
2023/06/16 10:37:50;;;;;;;4.40;1.83;;;24.50;97.90;;;;;;5137273;27;20039;-28
2023/06/16 10:40:21;;;;;;;2.45;1.70;;;24.60;43.80;;;;;;5137194;27;20050;-28
2023/06/16 10:42:48;;;;;;;2.85;1.98;;;25.10;64.40;;;;;;5137266;27;20400;-30
2023/06/16 10:45:31;;;;;;;3.22;1.63;;;25.30;80.20;;;;;;5137166;27;20096;-28
2023/06/16 10:48:02;;;;;;;4.20;1.60;;;26.10;71.10;;;;;;5119862;27;20039;-29
2023/06/16 10:50:44;;;;;;;3.08;1.67;;;25.00;43.10;;;;;;5101953;27;20086;-28
2023/06/16 10:53:12;;;;;;;5.28;1.63;;;25.10;65.50;;;;;;5118805;27;20043;-28
2023/06/16 10:55:44;;;;;;;2.25;1.23;;;25.20;88.40;;;;;;5136865;27;20047;-28
2023/06/16 10:58:16;;;;;;;2.03;1.23;;;24.80;57.20;;;;;;5136929;27;20082;-28
2023/06/16 11:01:02;;;;;;;2.38;1.58;;;25.70;92.80;;;;;;5136983;27;20043;-28
2023/06/16 11:03:44;;;;;;;2.03;1.40;;;26.20;89.00;;;;;;5119188;27;20492;-30
2023/06/16 11:06:10;;;;;;;1.50;1.20;;;26.20;99.90;;;;;;5118325;27;20186;-28
2023/06/16 11:08:53;;;;;;;2.08;1.55;;;25.60;92.90;;;;;;5136866;27;20043;-28
2023/06/16 11:11:20;;;;;;;4.20;1.77;;;25.60;99.90;;;;;;5136540;27;20053;-28
2023/06/16 11:13:46;;;;;;;3.13;1.52;;;26.40;99.90;;;;;;5136587;27;20050;-28
2023/06/16 11:16:12;;;;;;;3.25;1.48;;;26.40;99.90;;;;;;5136553;27;20054;-28
2023/06/16 11:18:38;;;;;;;5.05;1.42;;;26.40;99.90;;;;;;5118238;27;20400;-28
2023/06/16 11:21:07;;;;;;;3.80;1.70;;;26.40;99.90;;;;;;5136463;27;20047;-29
2023/06/16 11:23:34;;;;;;;2.38;1.27;;;25.50;99.90;;;;;;5136439;27;20062;-28
2023/06/16 11:26:09;;;;;;;4.78;1.80;;;25.50;99.90;;;;;;5136235;27;20042;-28
2023/06/16 11:28:40;;;;;;;2.22;1.30;;;26.20;99.90;;;;;;5101185;27;20087;-28
2023/06/16 11:31:07;;;;;;;4.25;1.70;;;26.20;99.90;;;;;;5117968;27;20050;-29
2023/06/16 11:33:33;;;;;;;4.10;1.98;;;26.00;99.90;;;;;;5136201;27;20062;-28
2023/06/16 11:36:17;;;;;;;2.70;1.70;;;26.20;99.90;;;;;;5136212;27;20051;-29
2023/06/16 11:38:48;;;;;;;4.05;1.70;;;26.50;99.90;;;;;;5136054;27;20050;-29
2023/06/16 11:41:25;;;;;;;3.15;1.42;;;27.10;99.90;;;;;;5136233;27;20430;-27
2023/06/16 11:43:54;;;;;;;3.55;1.50;;;26.30;99.90;;;;;;5136063;27;20058;-28
2023/06/16 11:46:27;;;;;;;2.70;1.70;;;25.50;99.90;;;;;;5135611;27;20481;-28
2023/06/16 11:48:53;;;;;;;;;;;25.10;99.90;;;;;;5118611;27;20118;-29
2023/06/16 11:51:20;;;;;;;3.05;2.05;;;25.20;99.90;;;;;;5135834;27;20005;-28
2023/06/16 11:53:47;;;;;;;3.22;1.50;;;25.30;99.90;;;;;;5117831;27;20050;-28
2023/06/16 11:56:14;;;;;;;2.67;1.60;;;24.90;99.90;;;;;;5135780;27;20476;-28
2023/06/16 11:58:44;;;;;;;2.53;1.33;;;25.00;99.90;;;;;;5116997;27;20088;-28
2023/06/16 12:01:14;;;;;;;6.20;1.80;;;24.90;99.90;;;;;;5136218;27;20059;-27
2023/06/16 12:03:41;;;;;;;4.32;1.20;;;24.70;99.90;;;;;;5118161;27;20368;-28
2023/06/16 12:06:08;;;;;;;5.68;1.30;;;24.30;99.90;;;;;;5136183;27;20047;-28
2023/06/16 12:08:44;;;;;;;2.17;1.30;;;24.40;99.90;;;;;;5135548;27;20054;-28
2023/06/16 12:11:13;;;;;;;4.35;1.40;;;24.50;99.90;;;;;;5117317;27;20043;-28
2023/06/16 12:13:40;;;;;;;6.00;1.55;;;24.40;99.90;;;;;;5117561;27;20572;-28
2023/06/16 12:16:08;;;;;;;2.35;1.50;;;24.50;99.90;;;;;;5117618;27;20051;-29
2023/06/16 12:18:34;;;;;;;2.75;1.63;;;24.40;99.90;;;;;;5135057;27;20488;-29
2023/06/16 12:21:23;;;;;;;5.75;1.75;;;24.60;99.90;;;;;;5135825;27;20055;-27
2023/06/16 12:23:57;;;;;;;1.98;1.40;;;24.90;99.90;;;;;;5136007;27;20126;-28
2023/06/16 12:26:34;;;;;;;4.63;1.23;;;24.80;99.90;;;;;;5117144;27;20047;-28
2023/06/16 12:29:02;;;;;;;12.60;2.88;;;24.90;99.90;;;;;;5117482;27;20047;-28
2023/06/16 12:31:31;;;;;;;3.55;1.58;;;25.00;99.90;;;;;;5135078;27;20050;-29
2023/06/16 12:33:57;;;;;;;5.03;1.85;;;24.80;99.90;;;;;;5135114;27;20043;-28
2023/06/16 12:36:23;;;;;;;5.18;1.85;;;24.90;99.90;;;;;;5116864;27;20050;-28
2023/06/16 12:38:50;;;;;;;3.63;1.20;;;24.70;99.90;;;;;;5134967;27;20082;-29
2023/06/16 12:41:18;;;;;;;2.58;1.33;;;24.50;99.90;;;;;;5116682;27;20043;-27